createdAt,value
2024-04-25T00:02:26.687Z,94776.47
2024-04-25T00:04:54.166Z,94774.97
2024-04-25T00:07:22.518Z,94770.53
2024-04-25T00:09:50.036Z,94777.47
2024-04-25T00:12:17.476Z,94779.66
2024-04-25T00:14:44.986Z,94779.34
2024-04-25T00:17:12.491Z,94770.72
2024-04-25T00:19:39.989Z,94779.47
2024-04-25T00:22:07.310Z,94786.34
2024-04-25T00:24:34.641Z,94778.09
2024-04-25T00:27:01.988Z,94781.81
2024-04-25T00:29:29.502Z,94772.19
2024-04-25T00:31:57.017Z,94771.97
2024-04-25T00:34:24.438Z,94764.13
2024-04-25T00:36:51.842Z,94763.28
2024-04-25T00:39:19.193Z,94761.91
2024-04-25T00:41:46.541Z,94755.34
2024-04-25T00:44:14.049Z,94755.25
2024-04-25T00:46:43.896Z,94754.19
2024-04-25T00:49:13.564Z,94752.97
2024-04-25T00:51:41.464Z,94750.09
2024-04-25T00:54:09.217Z,94749.16
2024-04-25T00:56:40.334Z,94751.91
2024-04-25T00:59:08.603Z,94750.84
2024-04-25T01:01:39.273Z,94750.25
2024-04-25T01:04:06.895Z,94749.00
2024-04-25T01:06:36.399Z,94758.81
2024-04-25T01:09:03.879Z,94752.59
2024-04-25T01:11:34.366Z,94756.53
2024-04-25T01:14:03.180Z,94753.72
2024-04-25T01:16:30.744Z,94753.69
2024-04-25T01:18:58.215Z,94758.22
2024-04-25T01:21:25.674Z,94751.50
2024-04-25T01:23:55.747Z,94761.69
2024-04-25T01:26:23.595Z,94757.34
2024-04-25T01:28:53.076Z,94763.44
2024-04-25T01:31:21.016Z,94758.53
2024-04-25T01:33:49.110Z,94758.97
2024-04-25T01:36:16.722Z,94767.75
2024-04-25T01:38:44.230Z,94763.94
2024-04-25T01:41:11.716Z,94756.38
2024-04-25T01:43:39.129Z,94752.16
2024-04-25T01:46:07.934Z,94757.34
2024-04-25T01:48:35.854Z,94751.25
2024-04-25T01:51:03.551Z,94757.06
2024-04-25T01:53:31.142Z,94750.50
2024-04-25T01:55:58.564Z,94751.53
2024-04-25T01:58:25.934Z,94751.66
2024-04-25T02:00:53.309Z,94746.13
2024-04-25T02:03:20.801Z,94747.69
2024-04-25T02:05:48.354Z,94754.53
2024-04-25T02:08:15.726Z,94747.56
2024-04-25T02:10:43.182Z,94745.44
2024-04-25T02:13:10.601Z,94744.53
2024-04-25T02:15:39.044Z,94745.13
2024-04-25T02:18:06.746Z,94739.56
2024-04-25T02:20:52.814Z,94743.66
2024-04-25T02:23:38.829Z,94749.25
2024-04-25T02:26:11.126Z,94746.94
2024-04-25T02:28:38.588Z,94735.69
2024-04-25T02:31:06.002Z,94746.38
2024-04-25T02:33:33.471Z,94750.44
2024-04-25T02:36:00.889Z,94751.63
2024-04-25T02:38:28.370Z,94747.56
2024-04-25T02:40:55.781Z,94752.91
2024-04-25T02:43:23.141Z,94742.63
2024-04-25T02:45:50.443Z,94748.50
2024-04-25T02:48:17.960Z,94748.16
2024-04-25T02:50:45.334Z,94746.72
2024-04-25T02:53:12.706Z,94748.31
2024-04-25T02:55:42.076Z,94740.13
2024-04-25T02:58:09.451Z,94748.69
2024-04-25T03:00:36.849Z,94750.25
2024-04-25T03:03:04.640Z,94752.50
2024-04-25T03:05:32.084Z,94743.66
2024-04-25T03:07:59.428Z,94740.56
2024-04-25T03:10:26.822Z,94742.94
2024-04-25T03:12:54.156Z,94738.84
2024-04-25T03:15:21.559Z,94739.22
2024-04-25T03:17:49.179Z,94744.72
2024-04-25T03:20:16.752Z,94742.13
2024-04-25T03:22:44.172Z,94746.91
2024-04-25T03:25:11.607Z,94745.94
2024-04-25T03:27:39.970Z,94749.59
2024-04-25T03:30:08.079Z,94738.97
2024-04-25T03:32:35.625Z,94739.41
2024-04-25T03:35:03.122Z,94741.44
2024-04-25T03:37:30.908Z,94732.19
2024-04-25T03:39:58.313Z,94732.84
2024-04-25T03:42:25.697Z,94733.78
2024-04-25T03:44:53.598Z,94732.63
2024-04-25T03:47:22.080Z,94733.91
2024-04-25T03:49:49.830Z,94738.41
2024-04-25T03:52:17.223Z,94732.16
2024-04-25T03:54:44.604Z,94734.88
2024-04-25T03:57:11.900Z,94734.19
2024-04-25T03:59:39.452Z,94735.53
2024-04-25T04:02:07.281Z,94742.81
2024-04-25T04:04:34.759Z,94740.00
2024-04-25T04:07:02.154Z,94741.78
2024-04-25T04:09:29.539Z,94741.66
2024-04-25T04:11:57.052Z,94736.34
2024-04-25T04:14:24.567Z,94742.56
2024-04-25T04:16:58.279Z,94729.44
2024-04-25T04:19:25.767Z,94739.16
2024-04-25T04:21:53.140Z,94742.38
2024-04-25T04:24:20.672Z,94751.09
2024-04-25T04:26:48.738Z,94749.22
2024-04-25T04:29:16.334Z,94751.53
2024-04-25T04:31:43.790Z,94751.47
2024-04-25T04:34:11.213Z,94747.22
2024-04-25T04:36:38.679Z,94749.00
2024-04-25T04:39:07.666Z,94761.59
2024-04-25T04:41:35.073Z,94753.91
2024-04-25T04:44:02.939Z,94753.81
2024-04-25T04:46:30.395Z,94754.13
2024-04-25T04:48:57.955Z,94762.50
2024-04-25T04:51:25.456Z,94755.03
2024-04-25T04:53:53.250Z,94755.53
2024-04-25T04:56:20.711Z,94756.00
2024-04-25T04:58:48.432Z,94770.38
2024-04-25T05:01:16.210Z,94759.81
2024-04-25T05:03:45.007Z,94763.06
2024-04-25T05:06:21.037Z,94769.97
2024-04-25T05:08:48.863Z,94759.44
2024-04-25T05:11:16.342Z,94756.81
2024-04-25T05:13:44.304Z,94770.50
2024-04-25T05:16:11.918Z,94761.03
2024-04-25T05:18:39.820Z,94763.94
2024-04-25T05:21:07.988Z,94767.63
2024-04-25T05:23:38.295Z,94764.69
2024-04-25T05:26:08.912Z,94759.91
2024-04-25T05:28:45.061Z,94760.94
2024-04-25T05:31:13.044Z,94768.22
2024-04-25T05:33:41.139Z,94773.78
2024-04-25T05:36:12.615Z,94767.53
2024-04-25T05:38:40.599Z,94772.75
2024-04-25T05:41:08.567Z,94766.03
2024-04-25T05:43:36.364Z,94767.41
2024-04-25T05:46:05.129Z,94764.38
2024-04-25T05:48:34.209Z,94768.66
2024-04-25T05:51:01.959Z,94773.97
2024-04-25T05:53:29.418Z,94766.28
2024-04-25T05:55:56.865Z,94771.50
2024-04-25T05:58:24.368Z,94780.69
2024-04-25T06:00:51.839Z,94783.94
2024-04-25T06:03:19.577Z,94784.53
2024-04-25T06:05:47.146Z,94783.50
2024-04-25T06:08:14.593Z,94794.19
2024-04-25T06:10:43.698Z,94793.50
2024-04-25T06:13:11.494Z,94788.06
2024-04-25T06:15:38.935Z,94792.34
2024-04-25T06:18:08.865Z,94790.31
2024-04-25T06:20:36.512Z,94796.13
2024-04-25T06:23:04.957Z,94799.63
2024-04-25T06:25:32.513Z,94797.34
2024-04-25T06:27:59.915Z,94793.25
2024-04-25T06:30:27.301Z,94793.97
2024-04-25T06:32:54.888Z,94794.75
2024-04-25T06:35:22.374Z,94792.78
2024-04-25T06:37:49.876Z,94794.25
2024-04-25T06:40:18.123Z,94795.84
2024-04-25T06:42:45.595Z,94802.47
2024-04-25T06:45:13.257Z,94799.38
2024-04-25T06:47:42.612Z,94789.47
2024-04-25T06:50:10.181Z,94795.03
2024-04-25T06:52:38.055Z,94792.63
2024-04-25T06:55:06.028Z,94802.47
2024-04-25T06:57:33.491Z,94796.69
2024-04-25T07:00:01.024Z,94790.94
2024-04-25T07:02:29.033Z,94806.75
2024-04-25T07:04:59.441Z,94802.59
2024-04-25T07:07:27.505Z,94802.22
2024-04-25T07:09:55.098Z,94796.84
2024-04-25T07:12:22.513Z,94793.66
2024-04-25T07:14:49.933Z,94797.00
2024-04-25T07:17:17.587Z,94799.78
2024-04-25T07:19:45.661Z,94800.03
2024-04-25T07:22:13.308Z,94796.44
2024-04-25T07:24:40.833Z,94793.91
2024-04-25T07:27:08.231Z,94805.25
2024-04-25T07:29:36.324Z,94799.13
2024-04-25T07:32:04.815Z,94790.97
2024-04-25T07:34:32.595Z,94795.56
2024-04-25T07:37:00.087Z,94798.72
2024-04-25T07:39:27.628Z,94798.03
2024-04-25T07:41:55.130Z,94798.22
2024-04-25T07:44:22.567Z,94799.22
2024-04-25T07:46:50.628Z,94798.50
2024-04-25T07:49:18.669Z,94795.72
2024-04-25T07:51:46.568Z,94792.88
2024-04-25T07:54:14.509Z,94798.81
2024-04-25T07:56:42.132Z,94805.25
2024-04-25T07:59:09.761Z,94802.34
2024-04-25T08:01:37.358Z,94802.56
2024-04-25T08:04:04.880Z,94803.47
2024-04-25T08:06:35.694Z,94803.69
2024-04-25T08:09:03.833Z,94807.19
2024-04-25T08:11:31.463Z,94807.66
2024-04-25T08:14:01.269Z,94806.88
2024-04-25T08:16:30.298Z,94807.31
2024-04-25T08:18:57.692Z,94804.94
2024-04-25T08:21:25.219Z,94810.66
2024-04-25T08:23:52.699Z,94807.50
2024-04-25T08:26:24.094Z,94813.22
2024-04-25T08:28:51.530Z,94812.75
2024-04-25T08:31:19.301Z,94819.56
2024-04-25T08:33:48.398Z,94810.19
2024-04-25T08:36:16.539Z,94804.25
2024-04-25T08:38:46.629Z,94816.59
2024-04-25T08:41:16.220Z,94804.44
2024-04-25T08:43:44.473Z,94811.94
2024-04-25T08:46:14.230Z,94806.94
2024-04-25T08:48:42.363Z,94809.69
2024-04-25T08:51:14.975Z,94805.53
2024-04-25T08:53:42.910Z,94818.03
2024-04-25T08:56:11.870Z,94801.34
2024-04-25T08:58:39.763Z,94799.91
2024-04-25T09:01:08.938Z,94805.56
2024-04-25T09:03:37.956Z,94803.78
2024-04-25T09:06:07.564Z,94803.00
2024-04-25T09:08:35.254Z,94805.88
2024-04-25T09:11:02.880Z,94795.94
2024-04-25T09:13:30.373Z,94793.94
2024-04-25T09:16:01.968Z,94790.06
2024-04-25T09:18:29.762Z,94789.31
2024-04-25T09:20:57.263Z,94781.19
2024-04-25T09:23:24.930Z,94789.13
2024-04-25T09:25:52.566Z,94791.56
2024-04-25T09:28:20.330Z,94791.97
2024-04-25T09:30:47.832Z,94808.31
2024-04-25T09:33:19.758Z,94813.94
2024-04-25T09:35:49.108Z,94815.44
2024-04-25T09:38:16.845Z,94798.78
2024-04-25T09:40:51.003Z,94807.56
2024-04-25T09:43:20.381Z,94796.72
2024-04-25T09:45:47.808Z,94789.91
2024-04-25T09:48:19.179Z,94779.84
2024-04-25T09:50:49.530Z,94791.88
2024-04-25T09:53:58.899Z,94787.75
2024-04-25T09:56:30.381Z,94780.44
2024-04-25T09:59:27.483Z,94774.47
2024-04-25T10:01:56.177Z,94761.47
2024-04-25T10:04:31.182Z,94764.56
2024-04-25T10:07:00.645Z,94764.53
2024-04-25T10:09:29.213Z,94761.44
2024-04-25T10:12:00.093Z,94764.34
2024-04-25T10:14:31.113Z,94761.75
2024-04-25T10:17:02.365Z,94748.63
2024-04-25T10:19:41.367Z,94755.56
2024-04-25T10:22:08.946Z,94757.63
2024-04-25T10:24:44.028Z,94754.19
2024-04-25T10:27:14.889Z,94746.34
2024-04-25T10:30:02.533Z,94747.88
2024-04-25T10:32:33.801Z,94733.69
2024-04-25T10:35:02.372Z,94747.78
2024-04-25T10:37:32.184Z,94745.06
2024-04-25T10:40:05.143Z,94758.44
2024-04-25T10:42:32.595Z,94754.66
2024-04-25T10:45:00.429Z,94748.81
2024-04-25T10:47:28.096Z,94742.78
2024-04-25T10:49:55.963Z,94745.59
2024-04-25T10:52:24.035Z,94741.81
2024-04-25T10:54:51.938Z,94739.44
2024-04-25T10:57:19.526Z,94739.19
2024-04-25T10:59:47.156Z,94740.91
2024-04-25T11:02:15.564Z,94736.09
2024-04-25T11:04:44.065Z,94729.78
2024-04-25T11:07:15.540Z,94725.75
2024-04-25T11:09:43.061Z,94716.69
2024-04-25T11:12:13.518Z,94714.16
2024-04-25T11:14:41.553Z,94708.22
2024-04-25T11:17:09.003Z,94720.13
2024-04-25T11:19:43.718Z,94719.09
2024-04-25T11:24:49.140Z,94717.81
2024-04-25T11:27:17.568Z,94712.53
2024-04-25T11:29:45.246Z,94717.06
2024-04-25T11:32:16.634Z,94709.59
2024-04-25T11:34:44.025Z,94702.34
2024-04-25T11:37:11.509Z,94693.97
2024-04-25T11:39:40.492Z,94699.72
2024-04-25T11:42:10.457Z,94707.56
2024-04-25T11:44:38.207Z,94704.34
2024-04-25T11:47:14.598Z,94703.94
2024-04-25T11:50:02.792Z,94708.50
2024-04-25T11:52:48.339Z,94712.97
2024-04-25T11:55:29.881Z,94711.75
2024-04-25T11:57:58.529Z,94726.03
2024-04-25T12:00:26.950Z,94726.31
2024-04-25T12:02:54.914Z,94720.34
2024-04-25T12:05:25.666Z,94728.69
2024-04-25T12:07:55.773Z,94718.19
2024-04-25T12:10:33.452Z,94715.56
2024-04-25T12:13:12.095Z,94724.59
2024-04-25T12:15:40.070Z,94722.66
2024-04-25T12:18:08.158Z,94717.81
2024-04-25T12:20:36.962Z,94705.63
2024-04-25T12:23:05.183Z,94716.78
2024-04-25T12:25:32.952Z,94696.91
2024-04-25T12:28:00.552Z,94701.16
2024-04-25T12:30:28.298Z,94694.81
2024-04-25T12:32:55.933Z,94691.59
2024-04-25T12:35:23.978Z,94695.25
2024-04-25T12:37:52.518Z,94696.75
2024-04-25T12:40:20.566Z,94694.97
2024-04-25T12:42:48.194Z,94688.75
2024-04-25T12:45:21.104Z,94685.09
2024-04-25T12:47:48.873Z,94684.41
2024-04-25T12:50:19.159Z,94676.41
2024-04-25T12:52:48.959Z,94682.97
2024-04-25T12:55:19.714Z,94695.34
2024-04-25T12:57:47.384Z,94696.41
2024-04-25T13:00:15.200Z,94698.72
2024-04-25T13:02:42.743Z,94697.28
2024-04-25T13:05:10.348Z,94699.81
2024-04-25T13:07:37.972Z,94697.44
2024-04-25T13:10:05.502Z,94702.97
2024-04-25T13:12:33.126Z,94700.97
2024-04-25T13:15:04.776Z,94692.75
2024-04-25T13:17:33.558Z,94690.56
2024-04-25T13:20:02.698Z,94688.84
2024-04-25T13:22:30.471Z,94685.31
2024-04-25T13:24:58.077Z,94678.88
2024-04-25T13:27:25.717Z,94685.50
2024-04-25T13:29:53.281Z,94679.91
2024-04-25T13:32:22.493Z,94671.78
2024-04-25T13:34:53.068Z,94671.91
2024-04-25T13:37:20.619Z,94660.47
2024-04-25T13:39:48.200Z,94652.03
2024-04-25T13:42:15.792Z,94640.44
2024-04-25T13:44:43.578Z,94652.72
2024-04-25T13:47:11.204Z,94653.34
2024-04-25T13:49:38.795Z,94643.84
2024-04-25T13:52:06.478Z,94646.22
2024-04-25T13:54:35.239Z,94643.38
2024-04-25T13:57:04.122Z,94646.59
2024-04-25T13:59:32.150Z,94631.75
2024-04-25T14:02:17.300Z,94633.41
2024-04-25T14:04:45.987Z,94632.44
2024-04-25T14:07:13.363Z,94636.19
2024-04-25T14:09:42.350Z,94628.34
2024-04-25T14:12:09.991Z,94630.25
2024-04-25T14:14:37.607Z,94633.59
2024-04-25T14:17:05.067Z,94631.13
2024-04-25T14:19:58.976Z,94626.66
2024-04-25T14:22:26.895Z,94630.44
2024-04-25T14:25:01.392Z,94628.31
2024-04-25T14:27:47.670Z,94626.66
2024-04-25T14:30:15.203Z,94625.16
2024-04-25T14:32:42.754Z,94626.00
2024-04-25T14:35:10.224Z,94617.97
2024-04-25T14:37:37.596Z,94618.81
2024-04-25T14:40:05.380Z,94616.41
2024-04-25T14:42:35.207Z,94611.50
2024-04-25T14:45:03.934Z,94610.97
2024-04-25T14:47:31.440Z,94605.16
2024-04-25T14:49:59.141Z,94602.25
2024-04-25T14:52:26.797Z,94598.19
2024-04-25T14:54:54.215Z,94602.91
2024-04-25T14:57:21.696Z,94588.13
2024-04-25T14:59:50.082Z,94599.13
2024-04-25T15:02:17.550Z,94614.66
2024-04-25T15:04:44.946Z,94610.19
2024-04-25T15:07:14.259Z,94607.88
2024-04-25T15:09:41.567Z,94603.00
2024-04-25T15:12:10.737Z,94618.06
2024-04-25T15:14:38.350Z,94614.53
2024-04-25T15:17:07.509Z,94615.47
2024-04-25T15:19:42.728Z,94607.63
2024-04-25T15:22:11.094Z,94616.63
2024-04-25T15:24:39.266Z,94616.41
2024-04-25T15:27:06.774Z,94616.38
2024-04-25T15:29:34.553Z,94619.47
2024-04-25T15:32:02.225Z,94611.81
2024-04-25T15:34:29.738Z,94618.66
2024-04-25T15:36:57.165Z,94614.34
2024-04-25T15:39:24.540Z,94616.19
2024-04-25T15:41:51.969Z,94607.75
2024-04-25T15:44:19.473Z,94603.41
2024-04-25T15:46:46.900Z,94604.47
2024-04-25T15:49:14.961Z,94605.91
2024-04-25T15:51:42.755Z,94604.88
2024-04-25T15:54:10.231Z,94614.53
2024-04-25T15:56:37.659Z,94613.13
2024-04-25T15:59:05.037Z,94606.84
2024-04-25T16:01:32.515Z,94601.94
2024-04-25T16:04:00.242Z,94603.59
2024-04-25T16:06:27.753Z,94603.47
2024-04-25T16:08:55.412Z,94602.63
2024-04-25T16:11:23.004Z,94606.53
2024-04-25T16:13:50.476Z,94606.88
2024-04-25T16:16:21.578Z,94604.38
2024-04-25T16:18:50.970Z,94591.31
2024-04-25T16:21:19.098Z,94596.03
2024-04-25T16:23:46.647Z,94599.31
2024-04-25T16:26:14.458Z,94595.56
2024-04-25T16:28:42.165Z,94597.25
2024-04-25T16:31:12.628Z,94595.25
2024-04-25T16:33:40.662Z,94597.44
2024-04-25T16:36:15.951Z,94596.78
2024-04-25T16:38:43.719Z,94597.16
2024-04-25T16:41:11.181Z,94594.66
2024-04-25T16:43:38.751Z,94598.06
2024-04-25T16:46:06.702Z,94597.25
2024-04-25T16:48:34.355Z,94600.94
2024-04-25T16:51:01.976Z,94597.16
2024-04-25T16:53:29.502Z,94604.13
2024-04-25T16:55:56.909Z,94597.06
2024-04-25T16:58:24.322Z,94607.47
2024-04-25T17:00:52.609Z,94606.53
2024-04-25T17:03:23.027Z,94601.69
2024-04-25T17:05:50.725Z,94606.50
2024-04-25T17:08:18.541Z,94607.25
2024-04-25T17:10:45.991Z,94601.78
2024-04-25T17:13:13.559Z,94600.09
2024-04-25T17:15:41.009Z,94603.88
2024-04-25T17:18:08.561Z,94605.59
2024-04-25T17:20:36.081Z,94614.09
2024-04-25T17:23:03.716Z,94611.28
2024-04-25T17:25:31.242Z,94612.63
2024-04-25T17:27:58.882Z,94611.28
2024-04-25T17:30:26.486Z,94602.00
2024-04-25T17:32:54.082Z,94604.31
2024-04-25T17:35:21.698Z,94607.91
2024-04-25T17:37:49.308Z,94606.41
2024-04-25T17:40:16.820Z,94615.44
2024-04-25T17:42:44.314Z,94616.38
2024-04-25T17:45:11.883Z,94614.84
2024-04-25T17:47:42.046Z,94613.91
2024-04-25T17:50:11.447Z,94621.88
2024-04-25T17:52:39.493Z,94623.22
2024-04-25T17:55:07.891Z,94634.16
2024-04-25T17:57:35.406Z,94640.25
2024-04-25T18:00:03.373Z,94637.75
2024-04-25T18:02:38.143Z,94643.97
2024-04-25T18:05:09.299Z,94648.94
2024-04-25T18:07:37.193Z,94646.84
2024-04-25T18:10:06.111Z,94651.13
2024-04-25T18:12:33.579Z,94650.25
2024-04-25T18:15:03.286Z,94652.25
2024-04-25T18:17:31.318Z,94657.22
2024-04-25T18:19:58.902Z,94652.34
2024-04-25T18:22:26.365Z,94653.22
2024-04-25T18:24:53.850Z,94658.56
2024-04-25T18:27:21.713Z,94666.28
2024-04-25T18:29:49.434Z,94662.09
2024-04-25T18:32:17.147Z,94660.94
2024-04-25T18:34:44.940Z,94666.84
2024-04-25T18:37:13.385Z,94663.28
2024-04-25T18:39:40.936Z,94666.94
2024-04-25T18:42:09.786Z,94677.28
2024-04-25T18:44:37.728Z,94672.78
2024-04-25T18:47:05.690Z,94677.13
2024-04-25T18:49:33.403Z,94682.69
2024-04-25T18:52:00.990Z,94686.06
2024-04-25T18:54:29.050Z,94685.59
2024-04-25T18:56:56.423Z,94686.06
2024-04-25T18:59:24.116Z,94700.88
2024-04-25T19:01:51.544Z,94694.19
2024-04-25T19:04:21.876Z,94695.72
2024-04-25T19:06:50.854Z,94696.94
2024-04-25T19:09:19.641Z,94699.00
2024-04-25T19:11:50.164Z,94696.38
2024-04-25T19:14:17.975Z,94704.19
2024-04-25T19:16:46.516Z,94700.34
2024-04-25T19:19:15.129Z,94700.16
2024-04-25T19:21:47.446Z,94702.34
2024-04-25T19:24:18.812Z,94711.97
2024-04-25T19:26:47.855Z,94705.25
2024-04-25T19:29:19.599Z,94715.94
2024-04-25T19:31:48.594Z,94720.59
2024-04-25T19:34:22.324Z,94716.41
2024-04-25T19:36:55.451Z,94712.53
2024-04-25T19:39:23.884Z,94715.69
2024-04-25T19:41:51.659Z,94715.13
2024-04-25T19:44:19.372Z,94719.34
2024-04-25T19:46:46.998Z,94718.50
2024-04-25T19:49:15.583Z,94724.88
2024-04-25T19:51:43.382Z,94720.75
2024-04-25T19:54:10.900Z,94728.09
2024-04-25T19:56:40.454Z,94723.03
2024-04-25T19:59:08.042Z,94718.00
2024-04-25T20:01:35.575Z,94720.03
2024-04-25T20:04:02.938Z,94728.75
2024-04-25T20:06:30.453Z,94719.59
2024-04-25T20:09:00.042Z,94717.81
2024-04-25T20:11:28.223Z,94718.84
2024-04-25T20:13:55.687Z,94719.88
2024-04-25T20:16:23.147Z,94718.16
2024-04-25T20:19:09.277Z,94725.09
2024-04-25T20:21:42.999Z,94725.09
2024-04-25T20:24:10.913Z,94717.16
2024-04-25T20:26:40.871Z,94720.75
2024-04-25T20:29:08.452Z,94713.56
2024-04-25T20:31:35.943Z,94719.31
2024-04-25T20:34:03.440Z,94722.06
2024-04-25T20:36:31.445Z,94715.28
2024-04-25T20:38:58.881Z,94716.25
2024-04-25T20:41:27.678Z,94715.91
2024-04-25T20:43:55.408Z,94718.34
2024-04-25T20:46:23.663Z,94719.47
2024-04-25T20:48:53.062Z,94708.19
2024-04-25T20:51:20.764Z,94712.00
2024-04-25T20:53:48.225Z,94710.41
2024-04-25T20:56:15.816Z,94715.38
2024-04-25T20:58:45.883Z,94712.25
2024-04-25T21:01:13.824Z,94719.53
2024-04-25T21:03:41.435Z,94719.25
2024-04-25T21:06:09.125Z,94717.06
2024-04-25T21:08:36.588Z,94718.50
2024-04-25T21:11:08.394Z,94721.53
2024-04-25T21:13:35.935Z,94711.31
2024-04-25T21:16:05.951Z,94711.94
2024-04-25T21:18:34.235Z,94715.13
2024-04-25T21:21:03.645Z,94720.06
2024-04-25T21:23:31.663Z,94716.97
2024-04-25T21:26:01.685Z,94712.53
2024-04-25T21:28:30.052Z,94706.59
2024-04-25T21:30:59.149Z,94704.59
2024-04-25T21:33:26.794Z,94720.94
2024-04-25T21:35:54.574Z,94720.03
2024-04-25T21:38:23.027Z,94717.22
2024-04-25T21:40:50.578Z,94713.56
2024-04-25T21:43:18.066Z,94710.56
2024-04-25T21:45:45.592Z,94711.44
2024-04-25T21:48:13.416Z,94710.56
2024-04-25T21:50:41.188Z,94701.06
2024-04-25T21:53:08.849Z,94717.44
2024-04-25T21:55:36.299Z,94705.22
2024-04-25T21:58:04.349Z,94702.75
2024-04-25T22:00:33.228Z,94707.78
2024-04-25T22:03:01.252Z,94708.03
2024-04-25T22:05:28.837Z,94707.72
2024-04-25T22:07:56.313Z,94705.59
2024-04-25T22:10:23.804Z,94713.06
2024-04-25T22:12:51.232Z,94708.22
2024-04-25T22:15:18.620Z,94705.41
2024-04-25T22:17:47.215Z,94705.41
2024-04-25T22:20:14.816Z,94699.16
2024-04-25T22:22:42.463Z,94697.75
2024-04-25T22:25:10.127Z,94696.44
2024-04-25T22:27:38.720Z,94700.50
2024-04-25T22:30:07.060Z,94685.06
2024-04-25T22:32:34.636Z,94692.56
2024-04-25T22:35:02.505Z,94698.56
2024-04-25T22:37:29.970Z,94694.50
2024-04-25T22:39:57.435Z,94698.88
2024-04-25T22:42:24.867Z,94693.41
2024-04-25T22:44:55.490Z,94698.00
2024-04-25T22:47:25.828Z,94697.81
2024-04-25T22:49:53.230Z,94698.19
2024-04-25T22:52:21.924Z,94692.88
2024-04-25T22:54:49.855Z,94688.31
2024-04-25T22:57:17.283Z,94696.75
2024-04-25T22:59:44.806Z,94697.25
2024-04-25T23:02:12.262Z,94694.28
2024-04-25T23:04:39.790Z,94687.94
2024-04-25T23:07:07.277Z,94687.50
2024-04-25T23:09:34.823Z,94699.53
2024-04-25T23:12:02.528Z,94695.09
2024-04-25T23:14:30.469Z,94694.19
2024-04-25T23:16:58.000Z,94688.94
2024-04-25T23:19:25.465Z,94684.88
2024-04-25T23:21:52.918Z,94687.84
2024-04-25T23:24:20.384Z,94684.88
2024-04-25T23:26:47.846Z,94684.41
2024-04-25T23:29:15.294Z,94681.94
2024-04-25T23:31:45.788Z,94684.69
2024-04-25T23:34:13.513Z,94682.91
2024-04-25T23:36:41.083Z,94683.59
2024-04-25T23:39:08.602Z,94686.22
2024-04-25T23:41:36.104Z,94681.31
2024-04-25T23:44:03.489Z,94667.69
2024-04-25T23:46:31.336Z,94669.97
2024-04-25T23:48:58.783Z,94669.97
2024-04-25T23:51:26.732Z,94672.75
2024-04-25T23:53:54.387Z,94672.84
2024-04-25T23:56:21.880Z,94669.25
2024-04-25T23:58:49.359Z,94670.72
